sensor_id;sensor_type;location;lat;lon;timestamp;pressure;altitude;pressure_sealevel;temperature
10058;BMP180;5068;51.286;7.518;2023-05-07T00:00:03;99400.00;;;16.90
10058;BMP180;5068;51.286;7.518;2023-05-07T00:01:39;99396.00;;;16.90
10058;BMP180;5068;51.286;7.518;2023-05-07T00:03:13;99401.00;;;16.90
10058;BMP180;5068;51.286;7.518;2023-05-07T00:04:45;99407.00;;;16.90
10058;BMP180;5068;51.286;7.518;2023-05-07T00:06:19;99404.00;;;16.90
10058;BMP180;5068;51.286;7.518;2023-05-07T00:07:51;99398.00;;;16.90
10058;BMP180;5068;51.286;7.518;2023-05-07T00:09:25;99397.00;;;16.90
10058;BMP180;5068;51.286;7.518;2023-05-07T00:10:58;99399.00;;;16.90
10058;BMP180;5068;51.286;7.518;2023-05-07T00:12:32;99404.00;;;16.90
10058;BMP180;5068;51.286;7.518;2023-05-07T00:14:05;99403.00;;;16.90
10058;BMP180;5068;51.286;7.518;2023-05-07T00:15:39;99405.00;;;16.90
10058;BMP180;5068;51.286;7.518;2023-05-07T00:17:12;99408.00;;;16.90
10058;BMP180;5068;51.286;7.518;2023-05-07T00:18:44;99402.00;;;16.90
10058;BMP180;5068;51.286;7.518;2023-05-07T00:20:17;99405.00;;;16.90
10058;BMP180;5068;51.286;7.518;2023-05-07T00:21:50;99408.00;;;17.00
10058;BMP180;5068;51.286;7.518;2023-05-07T00:23:25;99405.00;;;16.90
10058;BMP180;5068;51.286;7.518;2023-05-07T00:24:58;99406.00;;;16.90
10058;BMP180;5068;51.286;7.518;2023-05-07T00:26:33;99413.00;;;16.90
10058;BMP180;5068;51.286;7.518;2023-05-07T00:28:06;99404.00;;;16.90
10058;BMP180;5068;51.286;7.518;2023-05-07T00:29:39;99409.00;;;16.90
10058;BMP180;5068;51.286;7.518;2023-05-07T00:31:12;99404.00;;;16.90
10058;BMP180;5068;51.286;7.518;2023-05-07T00:32:45;99405.00;;;16.90
10058;BMP180;5068;51.286;7.518;2023-05-07T00:34:20;99402.00;;;16.90
10058;BMP180;5068;51.286;7.518;2023-05-07T00:35:54;99401.00;;;16.90
10058;BMP180;5068;51.286;7.518;2023-05-07T00:37:27;99398.00;;;16.90
10058;BMP180;5068;51.286;7.518;2023-05-07T00:39:00;99395.00;;;16.90
10058;BMP180;5068;51.286;7.518;2023-05-07T00:40:35;99399.00;;;16.90
10058;BMP180;5068;51.286;7.518;2023-05-07T00:42:08;99393.00;;;16.90
10058;BMP180;5068;51.286;7.518;2023-05-07T00:43:42;99383.00;;;16.90
10058;BMP180;5068;51.286;7.518;2023-05-07T00:45:14;99386.00;;;16.90
10058;BMP180;5068;51.286;7.518;2023-05-07T00:46:48;99397.00;;;16.80
10058;BMP180;5068;51.286;7.518;2023-05-07T00:48:21;99390.00;;;16.80
10058;BMP180;5068;51.286;7.518;2023-05-07T00:49:57;99391.00;;;16.80
10058;BMP180;5068;51.286;7.518;2023-05-07T00:51:30;99401.00;;;16.80
10058;BMP180;5068;51.286;7.518;2023-05-07T00:53:04;99399.00;;;16.80
10058;BMP180;5068;51.286;7.518;2023-05-07T00:54:38;99395.00;;;16.80
10058;BMP180;5068;51.286;7.518;2023-05-07T00:56:11;99391.00;;;16.70
10058;BMP180;5068;51.286;7.518;2023-05-07T00:57:46;99393.00;;;16.70
10058;BMP180;5068;51.286;7.518;2023-05-07T00:59:19;99391.00;;;16.70
10058;BMP180;5068;51.286;7.518;2023-05-07T01:00:52;99394.00;;;16.70
10058;BMP180;5068;51.286;7.518;2023-05-07T01:02:25;99385.00;;;16.70
10058;BMP180;5068;51.286;7.518;2023-05-07T01:03:58;99395.00;;;16.70
10058;BMP180;5068;51.286;7.518;2023-05-07T01:05:32;99392.00;;;16.70
10058;BMP180;5068;51.286;7.518;2023-05-07T01:07:06;99397.00;;;16.80
10058;BMP180;5068;51.286;7.518;2023-05-07T01:08:41;99394.00;;;16.80
10058;BMP180;5068;51.286;7.518;2023-05-07T01:10:15;99389.00;;;16.80
10058;BMP180;5068;51.286;7.518;2023-05-07T01:11:50;99388.00;;;16.80
10058;BMP180;5068;51.286;7.518;2023-05-07T01:13:25;99392.00;;;16.80
10058;BMP180;5068;51.286;7.518;2023-05-07T01:14:58;99389.00;;;16.70
10058;BMP180;5068;51.286;7.518;2023-05-07T01:16:32;99392.00;;;16.70
10058;BMP180;5068;51.286;7.518;2023-05-07T01:18:06;99378.00;;;16.70
10058;BMP180;5068;51.286;7.518;2023-05-07T01:19:40;99384.00;;;16.70
10058;BMP180;5068;51.286;7.518;2023-05-07T01:21:17;99381.00;;;16.70
10058;BMP180;5068;51.286;7.518;2023-05-07T01:22:53;99389.00;;;16.70
10058;BMP180;5068;51.286;7.518;2023-05-07T01:24:25;99386.00;;;16.70
10058;BMP180;5068;51.286;7.518;2023-05-07T01:25:58;99388.00;;;16.70
10058;BMP180;5068;51.286;7.518;2023-05-07T01:27:33;99382.00;;;16.70
10058;BMP180;5068;51.286;7.518;2023-05-07T01:29:07;99380.00;;;16.70
10058;BMP180;5068;51.286;7.518;2023-05-07T01:30:45;99378.00;;;16.70
10058;BMP180;5068;51.286;7.518;2023-05-07T01:32:28;99382.00;;;16.70
10058;BMP180;5068;51.286;7.518;2023-05-07T01:34:03;99389.00;;;16.70
10058;BMP180;5068;51.286;7.518;2023-05-07T01:35:40;99385.00;;;16.70
10058;BMP180;5068;51.286;7.518;2023-05-07T01:37:16;99381.00;;;16.70
10058;BMP180;5068;51.286;7.518;2023-05-07T01:38:50;99373.00;;;16.70
10058;BMP180;5068;51.286;7.518;2023-05-07T01:40:25;99384.00;;;16.70
10058;BMP180;5068;51.286;7.518;2023-05-07T01:41:59;99380.00;;;16.80
10058;BMP180;5068;51.286;7.518;2023-05-07T01:43:33;99380.00;;;16.80
10058;BMP180;5068;51.286;7.518;2023-05-07T01:45:07;99377.00;;;16.80
10058;BMP180;5068;51.286;7.518;2023-05-07T01:46:40;99385.00;;;16.70
10058;BMP180;5068;51.286;7.518;2023-05-07T01:48:15;99383.00;;;16.70
10058;BMP180;5068;51.286;7.518;2023-05-07T01:49:47;99386.00;;;16.70
10058;BMP180;5068;51.286;7.518;2023-05-07T01:51:20;99377.00;;;16.70
10058;BMP180;5068;51.286;7.518;2023-05-07T01:52:54;99382.00;;;16.70
10058;BMP180;5068;51.286;7.518;2023-05-07T01:54:29;99376.00;;;16.70
10058;BMP180;5068;51.286;7.518;2023-05-07T01:56:03;99375.00;;;16.60
10058;BMP180;5068;51.286;7.518;2023-05-07T01:57:38;99384.00;;;16.60
10058;BMP180;5068;51.286;7.518;2023-05-07T01:59:10;99371.00;;;16.60
10058;BMP180;5068;51.286;7.518;2023-05-07T02:00:45;99374.00;;;16.60
10058;BMP180;5068;51.286;7.518;2023-05-07T02:02:18;99364.00;;;16.60
10058;BMP180;5068;51.286;7.518;2023-05-07T02:03:51;99365.00;;;16.60
10058;BMP180;5068;51.286;7.518;2023-05-07T02:05:29;99370.00;;;16.60
10058;BMP180;5068;51.286;7.518;2023-05-07T02:07:07;99364.00;;;16.60
10058;BMP180;5068;51.286;7.518;2023-05-07T02:08:41;99371.00;;;16.60
10058;BMP180;5068;51.286;7.518;2023-05-07T02:10:16;99366.00;;;16.60
10058;BMP180;5068;51.286;7.518;2023-05-07T02:11:49;99375.00;;;16.60
10058;BMP180;5068;51.286;7.518;2023-05-07T02:13:26;99374.00;;;16.60
10058;BMP180;5068;51.286;7.518;2023-05-07T02:14:59;99363.00;;;16.60
10058;BMP180;5068;51.286;7.518;2023-05-07T02:16:32;99359.00;;;16.60
10058;BMP180;5068;51.286;7.518;2023-05-07T02:18:08;99369.00;;;16.60
10058;BMP180;5068;51.286;7.518;2023-05-07T02:19:42;99374.00;;;16.50
10058;BMP180;5068;51.286;7.518;2023-05-07T02:21:14;99372.00;;;16.50
10058;BMP180;5068;51.286;7.518;2023-05-07T02:22:47;99370.00;;;16.50
10058;BMP180;5068;51.286;7.518;2023-05-07T02:24:20;99372.00;;;16.50
10058;BMP180;5068;51.286;7.518;2023-05-07T02:25:54;99372.00;;;16.50
10058;BMP180;5068;51.286;7.518;2023-05-07T02:27:27;99373.00;;;16.50
10058;BMP180;5068;51.286;7.518;2023-05-07T02:29:00;99380.00;;;16.50
10058;BMP180;5068;51.286;7.518;2023-05-07T02:30:33;99368.00;;;16.50
10058;BMP180;5068;51.286;7.518;2023-05-07T02:32:05;99370.00;;;16.50
10058;BMP180;5068;51.286;7.518;2023-05-07T02:33:38;99378.00;;;16.50
10058;BMP180;5068;51.286;7.518;2023-05-07T02:35:13;99371.00;;;16.50
10058;BMP180;5068;51.286;7.518;2023-05-07T02:36:46;99372.00;;;16.50
10058;BMP180;5068;51.286;7.518;2023-05-07T02:38:23;99371.00;;;16.50
10058;BMP180;5068;51.286;7.518;2023-05-07T02:39:56;99375.00;;;16.50
10058;BMP180;5068;51.286;7.518;2023-05-07T02:41:29;99372.00;;;16.50
10058;BMP180;5068;51.286;7.518;2023-05-07T02:43:03;99378.00;;;16.50
10058;BMP180;5068;51.286;7.518;2023-05-07T02:44:35;99372.00;;;16.40
10058;BMP180;5068;51.286;7.518;2023-05-07T02:46:09;99365.00;;;16.40
10058;BMP180;5068;51.286;7.518;2023-05-07T02:47:46;99367.00;;;16.40
10058;BMP180;5068;51.286;7.518;2023-05-07T02:49:19;99377.00;;;16.40
10058;BMP180;5068;51.286;7.518;2023-05-07T02:50:52;99369.00;;;16.40
10058;BMP180;5068;51.286;7.518;2023-05-07T02:52:26;99368.00;;;16.40
10058;BMP180;5068;51.286;7.518;2023-05-07T02:53:59;99359.00;;;16.30
10058;BMP180;5068;51.286;7.518;2023-05-07T02:55:33;99363.00;;;16.30
10058;BMP180;5068;51.286;7.518;2023-05-07T02:57:07;99359.00;;;16.30
10058;BMP180;5068;51.286;7.518;2023-05-07T02:58:40;99348.00;;;16.30
10058;BMP180;5068;51.286;7.518;2023-05-07T03:00:16;99363.00;;;16.30
10058;BMP180;5068;51.286;7.518;2023-05-07T03:02:16;99360.00;;;16.20
10058;BMP180;5068;51.286;7.518;2023-05-07T03:03:50;99366.00;;;16.20
10058;BMP180;5068;51.286;7.518;2023-05-07T03:05:23;99354.00;;;16.20
10058;BMP180;5068;51.286;7.518;2023-05-07T03:06:56;99356.00;;;16.20
10058;BMP180;5068;51.286;7.518;2023-05-07T03:08:30;99360.00;;;16.20
10058;BMP180;5068;51.286;7.518;2023-05-07T03:10:03;99361.00;;;16.10
10058;BMP180;5068;51.286;7.518;2023-05-07T03:11:36;99358.00;;;16.10
10058;BMP180;5068;51.286;7.518;2023-05-07T03:13:10;99358.00;;;16.10
10058;BMP180;5068;51.286;7.518;2023-05-07T03:14:44;99364.00;;;16.10
10058;BMP180;5068;51.286;7.518;2023-05-07T03:16:16;99364.00;;;16.10
10058;BMP180;5068;51.286;7.518;2023-05-07T03:17:49;99363.00;;;16.10
10058;BMP180;5068;51.286;7.518;2023-05-07T03:19:24;99369.00;;;16.00
10058;BMP180;5068;51.286;7.518;2023-05-07T03:20:57;99358.00;;;16.00
10058;BMP180;5068;51.286;7.518;2023-05-07T03:22:30;99363.00;;;16.00
10058;BMP180;5068;51.286;7.518;2023-05-07T03:24:05;99360.00;;;16.00
10058;BMP180;5068;51.286;7.518;2023-05-07T03:25:38;99367.00;;;16.00
10058;BMP180;5068;51.286;7.518;2023-05-07T03:27:11;99361.00;;;16.00
10058;BMP180;5068;51.286;7.518;2023-05-07T03:28:46;99365.00;;;16.00
10058;BMP180;5068;51.286;7.518;2023-05-07T03:30:21;99371.00;;;16.00
10058;BMP180;5068;51.286;7.518;2023-05-07T03:31:55;99371.00;;;16.00
10058;BMP180;5068;51.286;7.518;2023-05-07T03:33:28;99368.00;;;15.90
10058;BMP180;5068;51.286;7.518;2023-05-07T03:35:01;99361.00;;;15.90
10058;BMP180;5068;51.286;7.518;2023-05-07T03:36:34;99357.00;;;15.90
10058;BMP180;5068;51.286;7.518;2023-05-07T03:38:09;99367.00;;;16.00
10058;BMP180;5068;51.286;7.518;2023-05-07T03:39:43;99359.00;;;16.00
10058;BMP180;5068;51.286;7.518;2023-05-07T03:41:16;99357.00;;;16.00
10058;BMP180;5068;51.286;7.518;2023-05-07T03:42:50;99362.00;;;16.00
10058;BMP180;5068;51.286;7.518;2023-05-07T03:44:27;99360.00;;;15.90
10058;BMP180;5068;51.286;7.518;2023-05-07T03:46:01;99360.00;;;15.90
10058;BMP180;5068;51.286;7.518;2023-05-07T03:47:34;99363.00;;;15.90
10058;BMP180;5068;51.286;7.518;2023-05-07T03:49:08;99353.00;;;15.90
10058;BMP180;5068;51.286;7.518;2023-05-07T03:50:40;99350.00;;;15.90
10058;BMP180;5068;51.286;7.518;2023-05-07T03:52:13;99361.00;;;15.80
10058;BMP180;5068;51.286;7.518;2023-05-07T03:53:46;99366.00;;;15.80
10058;BMP180;5068;51.286;7.518;2023-05-07T03:55:19;99368.00;;;15.80
10058;BMP180;5068;51.286;7.518;2023-05-07T03:56:57;99364.00;;;15.80
10058;BMP180;5068;51.286;7.518;2023-05-07T03:58:30;99361.00;;;15.80
10058;BMP180;5068;51.286;7.518;2023-05-07T04:00:12;99363.00;;;15.80
10058;BMP180;5068;51.286;7.518;2023-05-07T04:01:54;99362.00;;;15.80
10058;BMP180;5068;51.286;7.518;2023-05-07T04:03:29;99364.00;;;15.80
10058;BMP180;5068;51.286;7.518;2023-05-07T04:05:05;99363.00;;;15.80
10058;BMP180;5068;51.286;7.518;2023-05-07T04:06:38;99368.00;;;15.80
10058;BMP180;5068;51.286;7.518;2023-05-07T04:08:11;99367.00;;;15.80
10058;BMP180;5068;51.286;7.518;2023-05-07T04:09:50;99366.00;;;15.80
10058;BMP180;5068;51.286;7.518;2023-05-07T04:11:23;99376.00;;;15.80
10058;BMP180;5068;51.286;7.518;2023-05-07T04:12:56;99368.00;;;15.70
10058;BMP180;5068;51.286;7.518;2023-05-07T04:14:30;99374.00;;;15.70
10058;BMP180;5068;51.286;7.518;2023-05-07T04:16:07;99373.00;;;15.70
10058;BMP180;5068;51.286;7.518;2023-05-07T04:17:42;99380.00;;;15.70
10058;BMP180;5068;51.286;7.518;2023-05-07T04:19:17;99379.00;;;15.70
10058;BMP180;5068;51.286;7.518;2023-05-07T04:20:54;99382.00;;;15.70
10058;BMP180;5068;51.286;7.518;2023-05-07T04:22:27;99383.00;;;15.70
10058;BMP180;5068;51.286;7.518;2023-05-07T04:24:00;99370.00;;;15.70
10058;BMP180;5068;51.286;7.518;2023-05-07T04:25:33;99375.00;;;15.70
10058;BMP180;5068;51.286;7.518;2023-05-07T04:27:14;99379.00;;;15.70
10058;BMP180;5068;51.286;7.518;2023-05-07T04:28:47;99373.00;;;15.70
10058;BMP180;5068;51.286;7.518;2023-05-07T04:30:20;99382.00;;;15.70
10058;BMP180;5068;51.286;7.518;2023-05-07T04:31:55;99381.00;;;15.70
10058;BMP180;5068;51.286;7.518;2023-05-07T04:33:28;99382.00;;;15.70
10058;BMP180;5068;51.286;7.518;2023-05-07T04:35:03;99378.00;;;15.70
10058;BMP180;5068;51.286;7.518;2023-05-07T04:36:37;99380.00;;;15.70
10058;BMP180;5068;51.286;7.518;2023-05-07T04:38:15;99380.00;;;15.70
10058;BMP180;5068;51.286;7.518;2023-05-07T04:39:51;99382.00;;;15.60
10058;BMP180;5068;51.286;7.518;2023-05-07T04:41:26;99375.00;;;15.60
10058;BMP180;5068;51.286;7.518;2023-05-07T04:42:59;99386.00;;;15.60
10058;BMP180;5068;51.286;7.518;2023-05-07T04:44:35;99389.00;;;15.60
10058;BMP180;5068;51.286;7.518;2023-05-07T04:46:09;99384.00;;;15.60
10058;BMP180;5068;51.286;7.518;2023-05-07T04:47:43;99380.00;;;15.60
10058;BMP180;5068;51.286;7.518;2023-05-07T04:49:17;99386.00;;;15.70
10058;BMP180;5068;51.286;7.518;2023-05-07T04:50:51;99397.00;;;15.70
10058;BMP180;5068;51.286;7.518;2023-05-07T04:52:24;99383.00;;;15.70
10058;BMP180;5068;51.286;7.518;2023-05-07T04:53:58;99390.00;;;15.70
10058;BMP180;5068;51.286;7.518;2023-05-07T04:55:33;99385.00;;;15.70
10058;BMP180;5068;51.286;7.518;2023-05-07T04:57:07;99394.00;;;15.70
10058;BMP180;5068;51.286;7.518;2023-05-07T04:58:40;99400.00;;;15.70
10058;BMP180;5068;51.286;7.518;2023-05-07T05:00:15;99394.00;;;15.70
10058;BMP180;5068;51.286;7.518;2023-05-07T05:01:49;99389.00;;;15.70
10058;BMP180;5068;51.286;7.518;2023-05-07T05:03:23;99382.00;;;15.70
10058;BMP180;5068;51.286;7.518;2023-05-07T05:04:57;99391.00;;;15.70
10058;BMP180;5068;51.286;7.518;2023-05-07T05:06:31;99389.00;;;15.60
10058;BMP180;5068;51.286;7.518;2023-05-07T05:08:06;99394.00;;;15.70
10058;BMP180;5068;51.286;7.518;2023-05-07T05:09:42;99393.00;;;15.70
10058;BMP180;5068;51.286;7.518;2023-05-07T05:11:15;99388.00;;;15.70
10058;BMP180;5068;51.286;7.518;2023-05-07T05:12:48;99396.00;;;15.70
10058;BMP180;5068;51.286;7.518;2023-05-07T05:14:22;99394.00;;;15.70
10058;BMP180;5068;51.286;7.518;2023-05-07T05:15:56;99391.00;;;15.70
10058;BMP180;5068;51.286;7.518;2023-05-07T05:17:30;99393.00;;;15.70
10058;BMP180;5068;51.286;7.518;2023-05-07T05:19:06;99395.00;;;15.80
10058;BMP180;5068;51.286;7.518;2023-05-07T05:20:42;99402.00;;;15.80
10058;BMP180;5068;51.286;7.518;2023-05-07T05:22:16;99398.00;;;15.80
10058;BMP180;5068;51.286;7.518;2023-05-07T05:23:48;99393.00;;;15.80
10058;BMP180;5068;51.286;7.518;2023-05-07T05:25:25;99397.00;;;15.90
10058;BMP180;5068;51.286;7.518;2023-05-07T05:26:58;99394.00;;;15.90
10058;BMP180;5068;51.286;7.518;2023-05-07T05:28:34;99390.00;;;15.90
10058;BMP180;5068;51.286;7.518;2023-05-07T05:30:09;99390.00;;;15.90
10058;BMP180;5068;51.286;7.518;2023-05-07T05:31:43;99398.00;;;15.90
10058;BMP180;5068;51.286;7.518;2023-05-07T05:33:17;99391.00;;;16.00
10058;BMP180;5068;51.286;7.518;2023-05-07T05:34:51;99394.00;;;16.00
10058;BMP180;5068;51.286;7.518;2023-05-07T05:36:24;99391.00;;;16.00
10058;BMP180;5068;51.286;7.518;2023-05-07T05:38:01;99395.00;;;16.00
10058;BMP180;5068;51.286;7.518;2023-05-07T05:39:45;99401.00;;;16.10
10058;BMP180;5068;51.286;7.518;2023-05-07T05:41:18;99396.00;;;16.10
10058;BMP180;5068;51.286;7.518;2023-05-07T05:42:52;99405.00;;;16.10
10058;BMP180;5068;51.286;7.518;2023-05-07T05:44:26;99398.00;;;16.10
10058;BMP180;5068;51.286;7.518;2023-05-07T05:45:59;99404.00;;;16.10
10058;BMP180;5068;51.286;7.518;2023-05-07T05:47:32;99403.00;;;16.20
10058;BMP180;5068;51.286;7.518;2023-05-07T05:49:06;99404.00;;;16.20
10058;BMP180;5068;51.286;7.518;2023-05-07T05:50:42;99403.00;;;16.30
10058;BMP180;5068;51.286;7.518;2023-05-07T05:52:15;99416.00;;;16.30
10058;BMP180;5068;51.286;7.518;2023-05-07T05:53:48;99418.00;;;16.30
10058;BMP180;5068;51.286;7.518;2023-05-07T05:55:22;99408.00;;;16.40
10058;BMP180;5068;51.286;7.518;2023-05-07T05:56:54;99410.00;;;16.40
10058;BMP180;5068;51.286;7.518;2023-05-07T05:58:28;99404.00;;;16.50
10058;BMP180;5068;51.286;7.518;2023-05-07T06:00:08;99409.00;;;16.50
10058;BMP180;5068;51.286;7.518;2023-05-07T06:01:49;99413.00;;;16.60
10058;BMP180;5068;51.286;7.518;2023-05-07T06:03:22;99412.00;;;16.60
10058;BMP180;5068;51.286;7.518;2023-05-07T06:04:56;99413.00;;;16.70
10058;BMP180;5068;51.286;7.518;2023-05-07T06:06:30;99407.00;;;16.70
10058;BMP180;5068;51.286;7.518;2023-05-07T06:08:05;99411.00;;;16.70
10058;BMP180;5068;51.286;7.518;2023-05-07T06:09:39;99408.00;;;16.80
10058;BMP180;5068;51.286;7.518;2023-05-07T06:11:13;99404.00;;;16.80
10058;BMP180;5068;51.286;7.518;2023-05-07T06:12:49;99418.00;;;16.80
10058;BMP180;5068;51.286;7.518;2023-05-07T06:14:22;99412.00;;;16.90
10058;BMP180;5068;51.286;7.518;2023-05-07T06:15:56;99411.00;;;16.90
10058;BMP180;5068;51.286;7.518;2023-05-07T06:17:29;99422.00;;;16.90
10058;BMP180;5068;51.286;7.518;2023-05-07T06:19:02;99430.00;;;17.00
10058;BMP180;5068;51.286;7.518;2023-05-07T06:20:34;99423.00;;;17.00
10058;BMP180;5068;51.286;7.518;2023-05-07T06:22:11;99427.00;;;17.00
10058;BMP180;5068;51.286;7.518;2023-05-07T06:23:44;99425.00;;;17.10
10058;BMP180;5068;51.286;7.518;2023-05-07T06:25:18;99428.00;;;17.10
10058;BMP180;5068;51.286;7.518;2023-05-07T06:26:52;99429.00;;;17.10
10058;BMP180;5068;51.286;7.518;2023-05-07T06:28:25;99427.00;;;17.10
10058;BMP180;5068;51.286;7.518;2023-05-07T06:29:59;99424.00;;;17.20
10058;BMP180;5068;51.286;7.518;2023-05-07T06:31:33;99430.00;;;17.20
10058;BMP180;5068;51.286;7.518;2023-05-07T06:33:10;99429.00;;;17.20
10058;BMP180;5068;51.286;7.518;2023-05-07T06:34:43;99432.00;;;17.20
10058;BMP180;5068;51.286;7.518;2023-05-07T06:36:18;99429.00;;;17.30
10058;BMP180;5068;51.286;7.518;2023-05-07T06:37:52;99427.00;;;17.30
10058;BMP180;5068;51.286;7.518;2023-05-07T06:39:31;99422.00;;;17.40
10058;BMP180;5068;51.286;7.518;2023-05-07T06:41:06;99432.00;;;17.50
10058;BMP180;5068;51.286;7.518;2023-05-07T06:42:39;99432.00;;;17.50
10058;BMP180;5068;51.286;7.518;2023-05-07T06:44:28;99434.00;;;17.60
10058;BMP180;5068;51.286;7.518;2023-05-07T06:46:23;99431.00;;;17.60
10058;BMP180;5068;51.286;7.518;2023-05-07T06:47:56;99434.00;;;17.70
10058;BMP180;5068;51.286;7.518;2023-05-07T06:49:30;99428.00;;;17.70
10058;BMP180;5068;51.286;7.518;2023-05-07T06:51:03;99430.00;;;17.80
10058;BMP180;5068;51.286;7.518;2023-05-07T06:52:37;99424.00;;;17.80
10058;BMP180;5068;51.286;7.518;2023-05-07T06:54:12;99431.00;;;17.90
10058;BMP180;5068;51.286;7.518;2023-05-07T06:55:47;99433.00;;;17.90
10058;BMP180;5068;51.286;7.518;2023-05-07T06:57:24;99432.00;;;18.00
10058;BMP180;5068;51.286;7.518;2023-05-07T06:58:57;99432.00;;;18.00
10058;BMP180;5068;51.286;7.518;2023-05-07T07:00:30;99422.00;;;18.10
10058;BMP180;5068;51.286;7.518;2023-05-07T07:02:03;99427.00;;;18.10
10058;BMP180;5068;51.286;7.518;2023-05-07T07:03:37;99420.00;;;18.10
10058;BMP180;5068;51.286;7.518;2023-05-07T07:05:10;99430.00;;;18.20
10058;BMP180;5068;51.286;7.518;2023-05-07T07:06:44;99426.00;;;18.30
10058;BMP180;5068;51.286;7.518;2023-05-07T07:08:19;99428.00;;;18.30
10058;BMP180;5068;51.286;7.518;2023-05-07T07:09:54;99419.00;;;18.40
10058;BMP180;5068;51.286;7.518;2023-05-07T07:11:28;99417.00;;;18.40
10058;BMP180;5068;51.286;7.518;2023-05-07T07:13:01;99426.00;;;18.50
10058;BMP180;5068;51.286;7.518;2023-05-07T07:14:34;99423.00;;;18.50
10058;BMP180;5068;51.286;7.518;2023-05-07T07:16:08;99417.00;;;18.60
10058;BMP180;5068;51.286;7.518;2023-05-07T07:17:41;99426.00;;;18.60
10058;BMP180;5068;51.286;7.518;2023-05-07T07:19:15;99429.00;;;18.70
10058;BMP180;5068;51.286;7.518;2023-05-07T07:20:48;99432.00;;;18.80
10058;BMP180;5068;51.286;7.518;2023-05-07T07:22:22;99427.00;;;18.80
10058;BMP180;5068;51.286;7.518;2023-05-07T07:23:55;99425.00;;;18.90
10058;BMP180;5068;51.286;7.518;2023-05-07T07:25:29;99424.00;;;18.90
10058;BMP180;5068;51.286;7.518;2023-05-07T07:27:03;99423.00;;;19.00
10058;BMP180;5068;51.286;7.518;2023-05-07T07:28:43;99424.00;;;19.00
10058;BMP180;5068;51.286;7.518;2023-05-07T07:30:19;99433.00;;;19.10
10058;BMP180;5068;51.286;7.518;2023-05-07T07:31:53;99427.00;;;19.10
10058;BMP180;5068;51.286;7.518;2023-05-07T07:33:27;99430.00;;;19.20
10058;BMP180;5068;51.286;7.518;2023-05-07T07:35:01;99428.00;;;19.20
10058;BMP180;5068;51.286;7.518;2023-05-07T07:36:34;99427.00;;;19.30
10058;BMP180;5068;51.286;7.518;2023-05-07T07:38:20;99423.00;;;19.40
10058;BMP180;5068;51.286;7.518;2023-05-07T07:39:53;99428.00;;;19.40
10058;BMP180;5068;51.286;7.518;2023-05-07T07:41:28;99426.00;;;19.50
10058;BMP180;5068;51.286;7.518;2023-05-07T07:43:01;99434.00;;;19.60
10058;BMP180;5068;51.286;7.518;2023-05-07T07:44:36;99425.00;;;19.60
10058;BMP180;5068;51.286;7.518;2023-05-07T07:46:12;99428.00;;;19.70
10058;BMP180;5068;51.286;7.518;2023-05-07T07:47:48;99429.00;;;19.80
10058;BMP180;5068;51.286;7.518;2023-05-07T07:49:21;99427.00;;;19.90
10058;BMP180;5068;51.286;7.518;2023-05-07T07:50:54;99430.00;;;19.90
10058;BMP180;5068;51.286;7.518;2023-05-07T07:52:28;99428.00;;;20.00
10058;BMP180;5068;51.286;7.518;2023-05-07T07:54:01;99429.00;;;20.10
10058;BMP180;5068;51.286;7.518;2023-05-07T07:55:39;99433.00;;;20.10
10058;BMP180;5068;51.286;7.518;2023-05-07T07:57:15;99432.00;;;20.20
10058;BMP180;5068;51.286;7.518;2023-05-07T07:58:48;99433.00;;;20.30
10058;BMP180;5068;51.286;7.518;2023-05-07T08:00:22;99429.00;;;20.40
10058;BMP180;5068;51.286;7.518;2023-05-07T08:01:59;99421.00;;;20.40
10058;BMP180;5068;51.286;7.518;2023-05-07T08:03:34;99422.00;;;20.50
10058;BMP180;5068;51.286;7.518;2023-05-07T08:05:08;99426.00;;;20.60
10058;BMP180;5068;51.286;7.518;2023-05-07T08:06:41;99424.00;;;20.70
10058;BMP180;5068;51.286;7.518;2023-05-07T08:08:15;99434.00;;;20.80
10058;BMP180;5068;51.286;7.518;2023-05-07T08:09:49;99419.00;;;20.80
10058;BMP180;5068;51.286;7.518;2023-05-07T08:11:26;99434.00;;;20.90
10058;BMP180;5068;51.286;7.518;2023-05-07T08:13:01;99439.00;;;21.00
10058;BMP180;5068;51.286;7.518;2023-05-07T08:14:36;99432.00;;;21.00
10058;BMP180;5068;51.286;7.518;2023-05-07T08:16:11;99435.00;;;21.10
10058;BMP180;5068;51.286;7.518;2023-05-07T08:17:45;99434.00;;;21.20
10058;BMP180;5068;51.286;7.518;2023-05-07T08:19:18;99426.00;;;21.30
10058;BMP180;5068;51.286;7.518;2023-05-07T08:20:52;99427.00;;;21.40
10058;BMP180;5068;51.286;7.518;2023-05-07T08:22:30;99436.00;;;21.50
10058;BMP180;5068;51.286;7.518;2023-05-07T08:24:04;99432.00;;;21.50
10058;BMP180;5068;51.286;7.518;2023-05-07T08:25:38;99431.00;;;21.60
10058;BMP180;5068;51.286;7.518;2023-05-07T08:27:11;99434.00;;;21.70
10058;BMP180;5068;51.286;7.518;2023-05-07T08:28:47;99433.00;;;21.80
10058;BMP180;5068;51.286;7.518;2023-05-07T08:30:21;99432.00;;;21.80
10058;BMP180;5068;51.286;7.518;2023-05-07T08:31:59;99432.00;;;21.90
10058;BMP180;5068;51.286;7.518;2023-05-07T08:33:32;99435.00;;;21.90
10058;BMP180;5068;51.286;7.518;2023-05-07T08:35:07;99435.00;;;22.00
10058;BMP180;5068;51.286;7.518;2023-05-07T08:36:40;99432.00;;;22.10
10058;BMP180;5068;51.286;7.518;2023-05-07T08:38:16;99436.00;;;22.10
10058;BMP180;5068;51.286;7.518;2023-05-07T08:39:49;99432.00;;;22.20
10058;BMP180;5068;51.286;7.518;2023-05-07T08:41:26;99434.00;;;22.20
10058;BMP180;5068;51.286;7.518;2023-05-07T08:43:02;99430.00;;;22.30
10058;BMP180;5068;51.286;7.518;2023-05-07T08:44:39;99439.00;;;22.30
10058;BMP180;5068;51.286;7.518;2023-05-07T08:46:18;99434.00;;;22.30
10058;BMP180;5068;51.286;7.518;2023-05-07T08:47:58;99436.00;;;22.40
10058;BMP180;5068;51.286;7.518;2023-05-07T08:49:37;99431.00;;;22.40
10058;BMP180;5068;51.286;7.518;2023-05-07T08:51:13;99442.00;;;22.50
10058;BMP180;5068;51.286;7.518;2023-05-07T08:52:47;99447.00;;;22.50
10058;BMP180;5068;51.286;7.518;2023-05-07T08:54:21;99447.00;;;22.60
10058;BMP180;5068;51.286;7.518;2023-05-07T08:55:55;99453.00;;;22.60
10058;BMP180;5068;51.286;7.518;2023-05-07T08:57:29;99453.00;;;22.70
10058;BMP180;5068;51.286;7.518;2023-05-07T08:59:02;99448.00;;;22.70
10058;BMP180;5068;51.286;7.518;2023-05-07T09:00:39;99448.00;;;22.80
10058;BMP180;5068;51.286;7.518;2023-05-07T09:02:13;99447.00;;;22.80
10058;BMP180;5068;51.286;7.518;2023-05-07T09:03:47;99441.00;;;22.90
10058;BMP180;5068;51.286;7.518;2023-05-07T09:05:20;99442.00;;;22.90
10058;BMP180;5068;51.286;7.518;2023-05-07T09:06:54;99445.00;;;23.00
10058;BMP180;5068;51.286;7.518;2023-05-07T09:08:29;99436.00;;;23.10
10058;BMP180;5068;51.286;7.518;2023-05-07T09:10:06;99436.00;;;23.10
10058;BMP180;5068;51.286;7.518;2023-05-07T09:11:42;99441.00;;;23.20